LIBRLGKR

Guest
Details From LIBR - BRINDISI/Casale
To LGKR - IOANNIS KAPODISTRIAS INTL
Flight Number -
Tags generated
Created
Modified
Stats Distance 111 nm / 205 km
Max Altitude 9,700 ft / 2,957 m
Waypoints 5
Social Downloads 4
Likes 0
Share VATSIM

Download

Looking for another format? Having issues loading an existing format? Contact us
Advertisement - Login to hide

Notes

Basic altitude profile: - Ascent Rate: 2500ft/min - Ascent Speed: 250kts - Cruise Altitude: 35000ft - Cruise Speed: 420kts - Descent Rate: 1500ft/min - Descent Speed: 250kts Options: - Use NATs: yes - Use PACOTS: yes - Use low airways: yes - Use high airways: yes

Route

LIBR ORSOM A14 TONLI LGKR

ID Type Via Altitude Latitude Longitude Leg Dist Tot Dist Heading (true) Name
O LIBR APT - 0 ft / 0 m 40.66082˚ 17.94267˚ - 0 nm - BRINDISI/Casale
ORSOM FIX - 9,300 ft / 2,835 m 40.36583˚ 18.44667˚ 29 nm 29 nm 127° / 128° -
TIGRA FIX A14 (AWY-LO) 9,700 ft / 2,957 m 40.05667˚ 19.00000˚ 31 nm 60 nm 126° / 126° -
TONLI FIX A14 (AWY-LO) 6,500 ft / 1,981 m 39.85028˚ 19.39444˚ 21 nm 82 nm 124° / 124° -
O LGKR APT - 0 ft / 0 m 39.60178˚ 19.91191˚ 28 nm 110 nm 122° / 122° IOANNIS KAPODISTRIAS INTL

Altitude Profile

Advertisement - Login to hide

LIBR

Details ICAO LIBR (BDS)
Name BRINDISI/Casale
Region Italy
Timezone Europe/Rome (UTC+1.0)
Stats Elevation 47 ft / 14 m (AMSL)
Location 40.660824° 17.942673°
Runways 2
Magnetic Variation 3.889° E

METAR

LIBR 121745Z 18019KT CAVOK 16/15 Q1019 NOSIG RMK SKC VIS MIN 9999 WIND THR31 19015KT BLU

Decode

TAF

TAF LIBR 121700Z 1218/1318 18015G25KT 9999 SCT015 TEMPO 1218/1300 19025G35KT BECMG 1309/1310 20015KT

Decode

Departure Runways

ID Width Length Bearing (true) Bearing (mag) Surface Threshold Offset Overrun Length
13 148 ft / 45 m 9,398 ft / 2,865 m 136.56° 132.67° Asphalt 0 ft / 0 m 689 ft / 210 m
23 148 ft / 45 m 6,129 ft / 1,868 m 232.52° 228.63° Asphalt 230 ft / 70 m 0 ft / 0 m
31 148 ft / 45 m 9,398 ft / 2,865 m 316.58° 312.69° Asphalt 0 ft / 0 m 387 ft / 118 m
5 148 ft / 45 m 6,129 ft / 1,868 m 52.51° 48.62° Asphalt 0 ft / 0 m 0 ft / 0 m

LGKR

Details ICAO LGKR (CFU)
Name IOANNIS KAPODISTRIAS INTL
Region Greece
Timezone Europe/Athens (UTC+2.0)
Stats Elevation 6 ft / 2 m (AMSL)
Location 39.601779° 19.911908°
Runways 1
Magnetic Variation 4.097° E

METAR

LGKR 121750Z 19007KT 9999 SCT008 SCT015 BKN070 15/14 Q1022 NOSIG

Decode

TAF

TAF LGKR 121700Z 1218/1318 16012KT 8000 SCT015 BKN025 BKN070 PROB40 TEMPO 1218/1312 3000 RA BR BKN010 OVC025 BECMG 1316/1318 22012KT

Decode

Destination Runways

ID Width Length Bearing (true) Bearing (mag) Surface Threshold Offset Overrun Length
17 148 ft / 45 m 7,815 ft / 2,382 m 168.81° 164.71° Asphalt 1,348 ft / 411 m 0 ft / 0 m
35 148 ft / 45 m 7,815 ft / 2,382 m 348.81° 344.71° Asphalt 213 ft / 65 m 0 ft / 0 m

Popular Alternatives